Time;durP1;ratioP1;P1;durP2;ratioP2;P2;SDS_P1;SDS_P2;PMS_P1;PMS_P2;Temp;Humidity;BMP_temperature;BMP_pressure;BME280_temperature;BME280_humidity;BME280_pressure;Samples;Min_cycle;Max_cycle;Signal;HPM_P1;HPM_P2
2024/04/10 00:02:18;;;;;;;1999.90;999.90;;;8.60;94.60;;;;;;5406642;26;20237;-80
2024/04/10 00:04:51;;;;;;;1999.90;999.90;;;8.50;94.10;;;;;;5443266;26;20007;-81
2024/04/10 00:07:17;;;;;;;1999.90;999.90;;;8.50;94.30;;;;;;5443916;26;20011;-79
2024/04/10 00:09:43;;;;;;;1999.90;999.90;;;8.50;94.70;;;;;;5408480;26;20068;-78
2024/04/10 00:12:08;;;;;;;1999.90;999.90;;;8.50;95.00;;;;;;5447967;26;20037;-77
2024/04/10 00:14:38;;;;;;;1999.90;999.90;;;8.60;94.80;;;;;;5442607;26;20001;-77
2024/04/10 00:17:04;;;;;;;1999.90;999.90;;;8.40;94.80;;;;;;5439124;26;20051;-78
2024/04/10 00:19:31;;;;;;;1999.90;999.90;;;8.70;94.90;;;;;;5435214;26;20010;-79
2024/04/10 00:21:57;;;;;;;1999.90;999.90;;;8.50;94.80;;;;;;5407007;26;20748;-78
2024/04/10 00:24:22;;;;;;;1999.90;999.90;;;8.60;94.70;;;;;;5416836;26;19998;-78
2024/04/10 00:26:49;;;;;;;1999.90;999.90;;;8.60;94.70;;;;;;5441220;26;20032;-79
2024/04/10 00:29:15;;;;;;;1999.90;999.90;;;8.50;94.40;;;;;;5450008;26;20014;-79
2024/04/10 00:31:41;;;;;;;1999.90;999.90;;;8.60;94.60;;;;;;5441816;26;19998;-76
2024/04/10 00:34:07;;;;;;;1999.90;999.90;;;8.60;94.60;;;;;;5409852;26;19999;-77
2024/04/10 00:36:33;;;;;;;1999.90;999.90;;;8.70;94.50;;;;;;5441276;26;20092;-80
2024/04/10 00:38:59;;;;;;;1999.90;999.90;;;8.70;94.60;;;;;;5444453;26;19998;-81
2024/04/10 00:41:25;;;;;;;1999.90;999.90;;;8.60;94.70;;;;;;5409340;26;20236;-82
2024/04/10 00:43:50;;;;;;;1999.90;999.90;;;8.60;94.80;;;;;;5444264;26;20009;-81
2024/04/10 00:46:19;;;;;;;1999.90;999.90;;;8.60;94.50;;;;;;5442211;26;19995;-79
2024/04/10 00:48:45;;;;;;;1999.90;999.90;;;8.60;94.50;;;;;;5445150;26;20006;-78
2024/04/10 00:51:12;;;;;;;1999.90;999.90;;;8.50;94.90;;;;;;5446376;26;20030;-79
2024/04/10 00:53:40;;;;;;;1999.90;999.90;;;8.60;95.00;;;;;;5441054;26;20423;-78
2024/04/10 00:56:06;;;;;;;1999.90;999.90;;;8.70;94.70;;;;;;5439770;26;20075;-78
2024/04/10 00:58:32;;;;;;;1999.90;999.90;;;8.60;95.10;;;;;;5414021;26;20007;-79
2024/04/10 01:00:59;;;;;;;1999.90;999.90;;;8.80;94.90;;;;;;5426410;26;19998;-80
2024/04/10 01:03:25;;;;;;;1999.90;999.90;;;8.70;95.10;;;;;;5446815;26;20015;-80
2024/04/10 01:06:01;;;;;;;1999.90;999.90;;;8.80;95.00;;;;;;5412631;26;19999;-79
2024/04/10 01:08:28;;;;;;;1999.90;999.90;;;8.70;94.70;;;;;;5449428;26;20062;-79
2024/04/10 01:10:54;;;;;;;1999.90;999.90;;;8.70;94.90;;;;;;5446620;26;20021;-79
2024/04/10 01:13:20;;;;;;;1999.90;999.90;;;8.60;95.10;;;;;;5443044;26;20774;-79
2024/04/10 01:15:46;;;;;;;1999.90;999.90;;;8.50;95.50;;;;;;5416718;26;20457;-79
2024/04/10 01:18:12;;;;;;;1999.90;999.90;;;8.50;95.30;;;;;;5440943;26;20003;-79
2024/04/10 01:20:38;;;;;;;1999.90;999.90;;;8.40;95.40;;;;;;5398884;26;19999;-79
2024/04/10 01:23:05;;;;;;;1999.90;999.90;;;8.30;95.70;;;;;;5410243;26;20025;-80
2024/04/10 01:25:30;;;;;;;1999.90;999.90;;;8.30;95.90;;;;;;5440822;26;20075;-78
2024/04/10 01:27:56;;;;;;;1999.90;999.90;;;8.30;95.90;;;;;;5409241;26;20019;-80
2024/04/10 01:30:23;;;;;;;1999.90;999.90;;;8.20;96.20;;;;;;5455068;26;20430;-80
2024/04/10 01:32:49;;;;;;;1999.90;999.90;;;8.20;96.50;;;;;;5422078;26;20227;-79
2024/04/10 01:35:14;;;;;;;1999.90;999.90;;;8.30;96.50;;;;;;5437215;26;20013;-79
2024/04/10 01:37:40;;;;;;;1999.90;999.90;;;8.10;97.10;;;;;;5448346;26;19995;-80
2024/04/10 01:40:06;;;;;;;1999.90;999.90;;;8.30;96.60;;;;;;5447319;26;19995;-79
2024/04/10 01:42:32;;;;;;;1999.90;999.90;;;8.20;96.70;;;;;;5454560;26;20017;-78
2024/04/10 01:44:59;;;;;;;1999.90;999.90;;;8.10;96.80;;;;;;5416864;26;19999;-78
2024/04/10 01:47:24;;;;;;;1999.90;999.90;;;8.00;97.40;;;;;;5450995;26;20013;-79
2024/04/10 01:49:51;;;;;;;1999.90;999.90;;;8.10;96.90;;;;;;5412538;26;20061;-78
2024/04/10 01:52:16;;;;;;;1999.90;999.90;;;8.10;97.30;;;;;;5420815;26;20437;-77
2024/04/10 01:54:43;;;;;;;1999.90;999.90;;;8.10;97.10;;;;;;5446479;26;20002;-79
2024/04/10 01:57:09;;;;;;;;;;;8.10;97.20;;;;;;5413079;26;20908;-79
2024/04/10 01:59:34;;;;;;;1999.90;999.90;;;8.30;97.00;;;;;;5443963;26;20565;-79
2024/04/10 02:02:00;;;;;;;1999.90;999.90;;;8.30;96.60;;;;;;5416476;26;19994;-82
2024/04/10 02:04:27;;;;;;;1999.90;999.90;;;8.20;96.80;;;;;;5443853;26;20509;-82
2024/04/10 02:06:52;;;;;;;1999.90;999.90;;;8.40;96.50;;;;;;5413776;26;19995;-81
2024/04/10 02:09:18;;;;;;;1999.90;999.90;;;8.40;96.40;;;;;;5409502;26;20010;-81
2024/04/10 02:11:44;;;;;;;1999.90;999.90;;;8.50;96.40;;;;;;5442900;26;20024;-80
2024/04/10 02:14:09;;;;;;;1999.90;999.90;;;8.40;96.20;;;;;;5411148;26;20003;-79
2024/04/10 02:16:35;;;;;;;1999.90;999.90;;;8.50;96.20;;;;;;5413694;26;20967;-79
2024/04/10 02:19:00;;;;;;;1999.90;999.90;;;8.40;96.20;;;;;;5411053;26;19999;-79
2024/04/10 02:21:26;;;;;;;1999.90;999.90;;;8.40;96.50;;;;;;5433770;26;21080;-79
2024/04/10 02:23:52;;;;;;;1999.90;999.90;;;8.40;96.50;;;;;;5410463;26;20455;-79
2024/04/10 02:26:19;;;;;;;1999.90;999.90;;;8.40;96.40;;;;;;5422089;26;20009;-80
2024/04/10 02:28:45;;;;;;;1999.90;999.90;;;8.40;96.40;;;;;;5441506;26;20014;-79
2024/04/10 02:31:11;;;;;;;1999.90;999.90;;;8.10;96.90;;;;;;5444300;26;20747;-80
2024/04/10 02:33:37;;;;;;;1999.90;999.90;;;8.10;97.30;;;;;;5413012;26;20015;-79
2024/04/10 02:36:07;;;;;;;1999.90;999.90;;;8.10;97.40;;;;;;5412138;26;20003;-81
2024/04/10 02:38:35;;;;;;;1999.90;999.90;;;8.10;97.30;;;;;;5411805;26;20035;-83
2024/04/10 02:41:01;;;;;;;1999.90;999.90;;;8.20;97.20;;;;;;5450204;26;19998;-81
2024/04/10 02:43:27;;;;;;;1999.90;999.90;;;8.30;97.00;;;;;;5441673;26;20018;-82
2024/04/10 02:45:59;;;;;;;1999.90;999.90;;;8.30;96.90;;;;;;5442824;26;20464;-83
2024/04/10 02:48:26;;;;;;;1999.90;999.90;;;8.30;97.00;;;;;;5407996;26;20017;-82
2024/04/10 02:50:52;;;;;;;1999.90;999.90;;;8.30;97.20;;;;;;5443118;26;20053;-82
2024/04/10 02:53:18;;;;;;;1999.90;999.90;;;8.30;97.20;;;;;;5412643;26;20003;-82
2024/04/10 02:55:48;;;;;;;1999.90;999.90;;;8.30;97.20;;;;;;5442038;26;19999;-80
2024/04/10 02:58:14;;;;;;;1999.90;999.90;;;8.10;97.50;;;;;;5444014;26;20011;-80
2024/04/10 03:00:47;;;;;;;1999.90;999.90;;;8.00;97.90;;;;;;5423668;26;20005;-80
2024/04/10 03:03:12;;;;;;;1999.90;999.90;;;8.00;97.80;;;;;;5441539;26;20047;-80
2024/04/10 03:05:42;;;;;;;1999.90;999.90;;;7.90;98.20;;;;;;5453147;26;20002;-80
2024/04/10 03:08:09;;;;;;;1999.90;999.90;;;7.90;98.40;;;;;;5411368;26;20005;-80
2024/04/10 03:10:36;;;;;;;1999.90;999.90;;;7.90;98.50;;;;;;5444978;26;19999;-80
2024/04/10 03:13:01;;;;;;;1999.90;999.90;;;7.90;98.50;;;;;;5418389;26;20840;-80
2024/04/10 03:15:28;;;;;;;1999.90;999.90;;;7.70;98.90;;;;;;5449459;26;20284;-80
2024/04/10 03:17:53;;;;;;;1999.90;999.90;;;7.80;99.00;;;;;;5442863;26;20003;-81
2024/04/10 03:20:23;;;;;;;1999.90;999.90;;;7.80;99.20;;;;;;5436960;26;19995;-79
2024/04/10 03:22:48;;;;;;;1999.90;999.90;;;7.80;99.20;;;;;;5420892;26;20009;-77
2024/04/10 03:25:14;;;;;;;1999.90;999.90;;;7.80;99.10;;;;;;5440883;26;19999;-80
2024/04/10 03:27:41;;;;;;;1999.90;999.90;;;7.80;99.20;;;;;;5454941;26;20010;-80
2024/04/10 03:30:08;;;;;;;1999.90;999.90;;;7.60;99.40;;;;;;5453294;26;20013;-79
2024/04/10 03:32:34;;;;;;;1999.90;999.90;;;7.50;99.80;;;;;;5444528;26;20772;-79
2024/04/10 03:35:00;;;;;;;1999.90;999.90;;;7.40;99.90;;;;;;5410069;26;19999;-79
2024/04/10 03:37:26;;;;;;;1999.90;999.90;;;7.60;99.90;;;;;;5443374;26;20027;-81
2024/04/10 03:39:52;;;;;;;1999.90;999.90;;;7.60;99.70;;;;;;5405906;26;19999;-81
2024/04/10 03:42:18;;;;;;;1999.90;999.90;;;7.60;99.90;;;;;;5453212;26;20879;-80
2024/04/10 03:44:44;;;;;;;1999.90;999.90;;;7.50;99.90;;;;;;5442331;26;20283;-81
2024/04/10 03:47:09;;;;;;;1999.90;999.90;;;7.30;99.90;;;;;;5410285;26;20014;-81
2024/04/10 03:49:35;;;;;;;1999.90;999.90;;;7.30;99.90;;;;;;5441333;26;19998;-81
2024/04/10 03:52:01;;;;;;;1999.90;999.90;;;7.50;99.90;;;;;;5414438;26;20014;-80
2024/04/10 03:54:26;;;;;;;1999.90;999.90;;;7.60;99.90;;;;;;5418408;26;20002;-78
2024/04/10 03:56:53;;;;;;;1999.90;999.90;;;7.50;99.90;;;;;;5416113;26;20009;-79
2024/04/10 03:59:19;;;;;;;1999.90;999.90;;;7.40;99.90;;;;;;5453787;26;20469;-79
2024/04/10 04:01:45;;;;;;;1999.90;999.90;;;7.60;99.90;;;;;;5445194;26;20007;-79
2024/04/10 04:04:11;;;;;;;1999.90;999.90;;;7.80;99.90;;;;;;5414193;26;20252;-80
2024/04/10 04:06:37;;;;;;;1999.90;999.90;;;7.90;99.90;;;;;;5442694;26;20003;-80
2024/04/10 04:09:03;;;;;;;1999.90;999.90;;;7.90;99.90;;;;;;5442808;26;20043;-78
2024/04/10 04:11:28;;;;;;;1999.90;999.90;;;8.00;99.80;;;;;;5410602;26;20007;-77
2024/04/10 04:13:54;;;;;;;1999.90;999.90;;;8.00;99.70;;;;;;5442820;26;20014;-77
2024/04/10 04:16:20;;;;;;;1999.90;999.90;;;8.10;99.90;;;;;;5442248;26;20025;-77
2024/04/10 04:18:46;;;;;;;1999.90;999.90;;;8.10;99.80;;;;;;5443169;26;20066;-77
2024/04/10 04:21:11;;;;;;;1999.90;999.90;;;8.00;99.90;;;;;;5438950;26;20068;-78
2024/04/10 04:23:37;;;;;;;1999.90;999.90;;;8.00;99.90;;;;;;5451597;26;20072;-77
2024/04/10 04:26:04;;;;;;;1999.90;999.90;;;8.00;99.90;;;;;;5444420;26;20581;-77
2024/04/10 04:28:30;;;;;;;;;;;8.00;99.90;;;;;;5415277;26;20447;-78
2024/04/10 04:30:55;;;;;;;1999.90;999.90;;;8.00;99.90;;;;;;5454012;26;20682;-77
2024/04/10 04:33:21;;;;;;;1999.90;999.90;;;8.10;99.90;;;;;;5399057;26;19995;-76
2024/04/10 04:35:47;;;;;;;1999.90;999.90;;;8.00;99.90;;;;;;5441814;26;20085;-77
2024/04/10 04:38:12;;;;;;;1999.90;999.90;;;7.90;99.90;;;;;;5441737;26;19995;-78
2024/04/10 04:40:38;;;;;;;1999.90;999.90;;;7.70;99.90;;;;;;5447469;26;20014;-78
2024/04/10 04:43:08;;;;;;;1999.90;999.90;;;7.50;99.90;;;;;;5463477;26;19998;-77
2024/04/10 04:45:38;;;;;;;1999.90;999.90;;;7.20;99.90;;;;;;5446367;26;19990;-77
2024/04/10 04:48:08;;;;;;;1999.90;999.90;;;7.20;99.90;;;;;;5410419;26;20009;-79
2024/04/10 04:50:34;;;;;;;1999.90;999.90;;;7.10;99.90;;;;;;5412860;26;20084;-78
2024/04/10 04:53:00;;;;;;;1999.90;999.90;;;7.10;99.90;;;;;;5454190;26;20957;-78
2024/04/10 04:55:26;;;;;;;1999.90;999.90;;;7.10;99.90;;;;;;5444517;26;20466;-76
2024/04/10 04:57:52;;;;;;;1999.90;999.90;;;7.10;99.90;;;;;;5442198;26;20025;-78
2024/04/10 05:00:20;;;;;;;1999.90;999.90;;;6.90;99.90;;;;;;5410819;26;19994;-77
2024/04/10 05:02:46;;;;;;;1999.90;999.90;;;6.90;99.90;;;;;;5443130;26;20007;-79
2024/04/10 05:05:16;;;;;;;1999.90;999.90;;;6.90;99.90;;;;;;5440184;26;20100;-78
2024/04/10 05:07:43;;;;;;;1999.90;999.90;;;6.90;99.90;;;;;;5411301;26;20002;-79
2024/04/10 05:10:13;;;;;;;;;;;6.80;99.90;;;;;;5410384;26;20011;-78
2024/04/10 05:12:41;;;;;;;1999.90;999.90;;;6.70;99.90;;;;;;5409421;26;20509;-78
2024/04/10 05:15:07;;;;;;;1999.90;999.90;;;6.90;99.90;;;;;;5419765;26;20026;-79
2024/04/10 05:17:33;;;;;;;1999.90;999.90;;;6.90;99.90;;;;;;5441081;26;20053;-78
2024/04/10 05:19:59;;;;;;;1999.90;999.90;;;6.90;99.90;;;;;;5437205;26;19994;-78
2024/04/10 05:22:25;;;;;;;1999.90;999.90;;;7.10;99.90;;;;;;5416494;26;20232;-78
2024/04/10 05:24:51;;;;;;;1999.90;999.90;;;7.20;99.90;;;;;;5414690;26;20006;-77
2024/04/10 05:27:27;;;;;;;1999.90;999.90;;;7.40;99.90;;;;;;5449743;26;20002;-77
2024/04/10 05:30:01;;;;;;;1999.90;999.90;;;7.60;99.90;;;;;;5436303;26;20490;-77
2024/04/10 05:32:27;;;;;;;1999.90;999.90;;;7.70;99.90;;;;;;5415306;26;20820;-77
2024/04/10 05:34:54;;;;;;;1999.90;999.90;;;7.90;99.90;;;;;;5417371;26;20071;-77
2024/04/10 05:37:21;;;;;;;;;;;7.90;99.90;;;;;;5441026;26;20010;-76
2024/04/10 05:40:01;;;;;;;1999.90;999.90;;;7.90;99.90;;;;;;5445997;26;19993;-77
2024/04/10 05:42:27;;;;;;;1999.90;999.90;;;8.10;99.90;;;;;;5450302;26;20099;-78
2024/04/10 05:44:52;;;;;;;1999.90;999.90;;;8.20;99.90;;;;;;5456120;26;20117;-76
2024/04/10 05:47:18;;;;;;;1999.90;999.90;;;8.20;99.90;;;;;;5401929;26;20010;-77
2024/04/10 05:49:44;;;;;;;1999.90;999.90;;;8.10;99.90;;;;;;5406699;26;20021;-77
2024/04/10 05:52:09;;;;;;;1999.90;999.90;;;8.10;99.90;;;;;;5411333;26;20840;-77
2024/04/10 05:54:35;;;;;;;1999.90;999.90;;;8.10;99.90;;;;;;5411926;26;20357;-78
2024/04/10 05:57:01;;;;;;;1999.90;999.90;;;8.10;99.90;;;;;;5446675;26;20018;-79
2024/04/10 05:59:27;;;;;;;1999.90;999.90;;;8.10;99.90;;;;;;5409794;26;20011;-75
2024/04/10 06:01:53;;;;;;;1999.90;999.90;;;8.20;99.90;;;;;;5449482;26;20052;-75
2024/04/10 06:04:18;;;;;;;1999.90;999.90;;;8.70;99.90;;;;;;5410003;26;20592;-80
2024/04/10 06:06:44;;;;;;;1999.90;999.90;;;9.10;99.00;;;;;;5440711;26;20844;-79
2024/04/10 06:09:10;;;;;;;1999.90;999.90;;;9.40;98.00;;;;;;5438582;26;20443;-81
2024/04/10 06:11:35;;;;;;;1999.90;999.90;;;9.10;98.00;;;;;;5438470;26;20869;-80
2024/04/10 06:14:01;;;;;;;1999.90;999.90;;;8.80;99.10;;;;;;5410873;26;19999;-80
2024/04/10 06:16:27;;;;;;;1999.90;999.90;;;8.70;99.70;;;;;;5439820;26;19995;-79
2024/04/10 06:18:53;;;;;;;1999.90;999.90;;;8.60;99.90;;;;;;5440163;26;20560;-81
2024/04/10 06:21:19;;;;;;;1999.90;999.90;;;8.70;99.70;;;;;;5406616;26;20005;-80
2024/04/10 06:23:44;;;;;;;1999.90;999.90;;;8.70;99.20;;;;;;5438500;26;20537;-79
2024/04/10 06:26:10;;;;;;;1999.90;999.90;;;10.80;95.80;;;;;;5404461;26;20014;-81
2024/04/10 06:28:36;;;;;;;1999.90;999.90;;;12.50;92.00;;;;;;5431165;26;20022;-81
2024/04/10 06:31:03;;;;;;;1999.90;999.90;;;13.80;86.20;;;;;;5449101;26;20366;-81
2024/04/10 06:33:30;;;;;;;1999.90;999.90;;;14.10;82.60;;;;;;5450751;26;20888;-82
2024/04/10 06:35:59;;;;;;;;;;;13.00;81.50;;;;;;5444024;26;20052;-80
2024/04/10 06:38:25;;;;;;;1999.90;999.90;;;11.70;88.80;;;;;;5443912;26;19925;-78
2024/04/10 06:40:55;;;;;;;1999.90;999.90;;;11.80;90.50;;;;;;5459237;26;20752;-78
2024/04/10 06:43:21;;;;;;;1999.90;999.90;;;13.30;87.40;;;;;;5444080;26;20010;-79
2024/04/10 06:46:02;;;;;;;1999.90;999.90;;;14.60;81.20;;;;;;5446851;26;19998;-76
2024/04/10 06:48:28;;;;;;;1999.90;999.90;;;15.40;78.20;;;;;;5404565;26;20844;-76
2024/04/10 06:51:05;;;;;;;1999.90;999.90;;;15.30;75.90;;;;;;5444359;26;20033;-76
2024/04/10 06:53:31;;;;;;;1999.90;999.90;;;15.60;77.10;;;;;;5444018;26;20010;-75
2024/04/10 06:55:59;;;;;;;1999.90;999.90;;;16.20;73.70;;;;;;5443939;26;20026;-75
2024/04/10 06:58:25;;;;;;;1999.90;999.90;;;15.60;75.20;;;;;;5443108;26;20006;-76
2024/04/10 07:01:04;;;;;;;;;;;13.90;77.50;;;;;;5440201;26;20017;-75
2024/04/10 07:03:39;;;;;;;1999.90;999.90;;;12.70;83.10;;;;;;5444792;26;20269;-75
2024/04/10 07:06:05;;;;;;;1999.90;999.90;;;12.70;82.40;;;;;;5406719;26;20025;-75
2024/04/10 07:08:36;;;;;;;1999.90;999.90;;;13.90;79.10;;;;;;5427951;26;20009;-75
2024/04/10 07:11:08;;;;;;;1999.90;999.90;;;13.40;80.20;;;;;;5431862;26;20007;-75
2024/04/10 07:13:35;;;;;;;1999.90;999.90;;;15.90;74.60;;;;;;5417089;26;21500;-76
2024/04/10 07:16:02;;;;;;;;;;;15.00;74.50;;;;;;5422866;26;20648;-76
2024/04/10 07:18:28;;;;;;;1999.90;999.90;;;14.50;75.00;;;;;;5408156;26;20358;-76
2024/04/10 07:20:58;;;;;;;1999.90;999.90;;;14.00;78.60;;;;;;5403095;26;19995;-76
2024/04/10 07:23:23;;;;;;;1999.90;999.90;;;17.00;70.40;;;;;;5430662;26;20022;-75
2024/04/10 07:25:49;;;;;;;1999.90;999.90;;;15.10;71.50;;;;;;5439938;26;21164;-75
2024/04/10 07:28:14;;;;;;;1999.90;999.90;;;16.30;72.00;;;;;;5413919;26;20096;-78
2024/04/10 07:30:46;;;;;;;1999.90;999.90;;;17.30;66.80;;;;;;5408607;26;20749;-79
2024/04/10 07:33:12;;;;;;;1999.90;999.90;;;15.60;67.20;;;;;;5451904;26;19995;-78
2024/04/10 07:35:37;;;;;;;1999.90;999.90;;;16.10;67.70;;;;;;5441322;26;19994;-76
2024/04/10 07:38:03;;;;;;;1999.90;999.90;;;17.20;65.80;;;;;;5453692;26;20007;-79
2024/04/10 07:40:29;;;;;;;1999.90;999.90;;;15.60;66.70;;;;;;5440663;26;19998;-77
2024/04/10 07:42:55;;;;;;;1999.90;999.90;;;16.70;68.90;;;;;;5436792;26;20006;-77
2024/04/10 07:45:20;;;;;;;1999.90;999.90;;;16.40;64.00;;;;;;5443721;26;20017;-78
2024/04/10 07:47:46;;;;;;;1999.90;999.90;;;16.90;64.90;;;;;;5437840;26;20540;-77
2024/04/10 07:50:12;;;;;;;1999.90;999.90;;;19.00;59.90;;;;;;5441529;26;20002;-77
2024/04/10 07:52:37;;;;;;;1999.90;999.90;;;19.40;58.40;;;;;;5438021;26;19991;-78
2024/04/10 07:55:03;;;;;;;1999.90;999.90;;;19.50;57.80;;;;;;5439373;26;20087;-80
2024/04/10 07:57:29;;;;;;;1999.90;999.90;;;20.40;56.90;;;;;;5450509;26;20258;-80
2024/04/10 07:59:54;;;;;;;1999.90;999.90;;;20.90;54.00;;;;;;5432576;26;19995;-80
2024/04/10 08:02:20;;;;;;;1999.90;999.90;;;21.20;51.90;;;;;;5431902;26;19995;-76
2024/04/10 08:04:46;;;;;;;1999.90;999.90;;;21.90;49.90;;;;;;5406599;26;19999;-80
2024/04/10 08:07:11;;;;;;;1999.90;999.90;;;21.90;49.50;;;;;;5435866;26;19995;-79
2024/04/10 08:09:37;;;;;;;1999.90;999.90;;;22.10;46.40;;;;;;5437512;26;19995;-80
2024/04/10 08:12:03;;;;;;;1999.90;999.90;;;21.80;48.20;;;;;;5417276;26;20000;-80
2024/04/10 08:14:29;;;;;;;;;;;22.40;47.40;;;;;;5410934;26;20042;-80
2024/04/10 08:16:54;;;;;;;1999.90;999.90;;;23.20;45.70;;;;;;5408591;26;19994;-80
2024/04/10 08:19:20;;;;;;;;;;;23.40;45.50;;;;;;5404860;26;20010;-79
2024/04/10 08:21:46;;;;;;;1999.90;999.90;;;23.50;44.60;;;;;;5430666;26;19925;-79
2024/04/10 08:24:11;;;;;;;;;;;22.90;43.40;;;;;;5405618;26;20017;-77
2024/04/10 08:26:38;;;;;;;1999.90;999.90;;;22.90;45.50;;;;;;5404564;26;20256;-79
2024/04/10 08:29:03;;;;;;;1999.90;999.90;;;20.90;46.00;;;;;;5439549;26;19998;-78
2024/04/10 08:31:30;;;;;;;1999.90;999.90;;;17.80;50.90;;;;;;5409206;26;19996;-79
2024/04/10 08:33:55;;;;;;;;;;;16.80;54.10;;;;;;5433774;26;19990;-79
2024/04/10 08:36:22;;;;;;;1999.90;999.90;;;17.30;53.50;;;;;;5405861;26;19944;-78
2024/04/10 08:38:48;;;;;;;1999.90;999.90;;;21.00;47.60;;;;;;5420764;26;21038;-79
2024/04/10 08:41:18;;;;;;;1999.90;999.90;;;19.10;49.20;;;;;;5404987;26;19991;-80
2024/04/10 08:43:46;;;;;;;1999.90;999.90;;;18.10;51.30;;;;;;5430036;26;20006;-79
2024/04/10 08:46:12;;;;;;;1999.90;999.90;;;16.90;53.40;;;;;;5419542;26;20053;-79
2024/04/10 08:48:43;;;;;;;1999.90;999.90;;;15.90;57.40;;;;;;5433632;26;20011;-79
2024/04/10 08:51:16;;;;;;;1999.90;999.90;;;17.50;55.10;;;;;;5417923;26;20858;-79
2024/04/10 08:53:43;;;;;;;1999.90;999.90;;;16.40;54.80;;;;;;5415769;26;20010;-78
2024/04/10 08:56:14;;;;;;;1999.90;999.90;;;19.00;51.70;;;;;;5442252;26;20089;-79
2024/04/10 08:58:40;;;;;;;1999.90;999.90;;;18.50;51.00;;;;;;5444716;26;21017;-80
2024/04/10 09:01:06;;;;;;;1999.90;999.90;;;16.20;54.10;;;;;;5444756;26;19999;-79
2024/04/10 09:03:34;;;;;;;1999.90;999.90;;;15.00;57.50;;;;;;5438675;26;20671;-79
2024/04/10 09:06:04;;;;;;;1999.90;999.90;;;14.50;59.10;;;;;;5440585;26;20002;-80
2024/04/10 09:10:10;;;;;;;1999.90;999.90;;;14.90;58.20;;;;;;5440922;25;20342;-70
2024/04/10 09:12:36;;;;;;;1999.90;999.90;;;18.60;53.90;;;;;;5441296;26;20010;-71
2024/04/10 09:15:11;;;;;;;1999.90;999.90;;;21.00;47.70;;;;;;5428640;26;20434;-71
2024/04/10 09:17:37;;;;;;;1999.90;999.90;;;21.40;44.00;;;;;;5453257;26;20449;-70
2024/04/10 09:20:16;;;;;;;1999.90;999.90;;;21.70;44.60;;;;;;5439491;26;20006;-70
2024/04/10 09:22:43;;;;;;;1999.90;999.90;;;23.20;42.00;;;;;;5443936;26;20767;-70
2024/04/10 09:25:13;;;;;;;1999.90;999.90;;;22.90;38.60;;;;;;5441192;26;20673;-70
2024/04/10 09:27:39;;;;;;;1999.90;999.90;;;24.00;41.30;;;;;;5438401;26;20006;-70
2024/04/10 09:30:05;;;;;;;;;;;24.50;40.00;;;;;;5435167;26;20091;-69
2024/04/10 09:32:36;;;;;;;1999.90;999.90;;;25.20;40.00;;;;;;5446025;26;19928;-71
2024/04/10 09:35:05;;;;;;;1999.90;999.90;;;24.70;32.80;;;;;;5433969;26;20458;-70
2024/04/10 09:37:32;;;;;;;1999.90;999.90;;;21.50;36.60;;;;;;5440018;26;20003;-70
2024/04/10 09:39:58;;;;;;;1999.90;999.90;;;23.90;38.80;;;;;;5437245;26;20010;-70
2024/04/10 09:42:27;;;;;;;1999.90;999.90;;;22.70;36.60;;;;;;5444448;26;19998;-70
2024/04/10 09:45:15;;;;;;;1999.90;999.90;;;23.80;34.80;;;;;;5434873;26;20015;-70
2024/04/10 09:47:43;;;;;;;1999.90;999.90;;;24.20;38.20;;;;;;5428436;26;19999;-70
2024/04/10 09:50:23;;;;;;;1999.90;999.90;;;23.50;34.30;;;;;;5436035;26;20404;-70
2024/04/10 09:52:51;;;;;;;1999.90;999.90;;;24.20;38.60;;;;;;5428159;26;20087;-70
2024/04/10 09:55:17;;;;;;;1999.90;999.90;;;24.60;36.10;;;;;;5433330;26;20007;-70
2024/04/10 09:57:44;;;;;;;1999.90;999.90;;;22.80;38.10;;;;;;5442339;26;20002;-70
2024/04/10 10:00:11;;;;;;;1999.90;999.90;;;20.30;40.30;;;;;;5429845;26;20082;-70
2024/04/10 10:02:38;;;;;;;1999.90;999.90;;;18.50;44.60;;;;;;5435318;26;20743;-70
2024/04/10 10:05:05;;;;;;;1999.90;999.90;;;17.40;47.10;;;;;;5435437;26;20003;-70
2024/04/10 10:07:32;;;;;;;1999.90;999.90;;;20.20;45.80;;;;;;5425623;26;20014;-71
2024/04/10 10:10:07;;;;;;;1999.90;999.90;;;21.80;40.60;;;;;;5441693;26;20009;-70
2024/04/10 10:12:33;;;;;;;1999.90;999.90;;;22.00;40.80;;;;;;5436068;26;20088;-70
2024/04/10 10:15:09;;;;;;;1999.90;999.90;;;22.70;38.70;;;;;;5424506;26;20454;-70
2024/04/10 10:17:35;;;;;;;1999.90;999.90;;;22.80;38.60;;;;;;5433834;26;20591;-70
2024/04/10 10:20:00;;;;;;;1999.90;999.90;;;21.30;40.00;;;;;;5435337;26;20003;-70
2024/04/10 10:22:26;;;;;;;1999.90;999.90;;;18.80;41.40;;;;;;5416443;26;20241;-70
2024/04/10 10:24:59;;;;;;;1999.90;999.90;;;18.30;42.20;;;;;;5420981;26;20031;-70
2024/04/10 10:27:25;;;;;;;1999.90;999.90;;;17.80;41.60;;;;;;5418760;26;20765;-70
2024/04/10 10:30:06;;;;;;;1999.90;999.90;;;18.90;42.10;;;;;;5443310;26;20002;-71
2024/04/10 10:32:32;;;;;;;1999.90;999.90;;;19.50;44.40;;;;;;5419785;26;20077;-71
2024/04/10 10:35:08;;;;;;;1999.90;999.90;;;18.50;41.10;;;;;;5417148;26;20022;-70
2024/04/10 10:37:34;;;;;;;;;;;18.60;44.80;;;;;;5425882;26;20551;-70
2024/04/10 10:40:01;;;;;;;;;;;17.20;42.00;;;;;;5414764;26;19924;-70
2024/04/10 10:42:26;;;;;;;1999.90;999.90;;;17.70;44.30;;;;;;5422404;26;19932;-70
2024/04/10 10:45:05;;;;;;;1999.90;999.90;;;17.40;43.70;;;;;;5414431;26;20349;-70
2024/04/10 10:47:39;;;;;;;1999.90;999.90;;;17.40;44.60;;;;;;5440532;26;19998;-71
2024/04/10 10:50:05;;;;;;;1999.90;999.90;;;18.00;46.90;;;;;;5431906;26;20255;-70
2024/04/10 10:52:31;;;;;;;1999.90;999.90;;;17.70;46.00;;;;;;5433480;26;19999;-70
2024/04/10 10:54:57;;;;;;;1999.90;999.90;;;16.90;46.80;;;;;;5428904;26;20055;-70
2024/04/10 10:57:23;;;;;;;1999.90;999.90;;;17.60;47.30;;;;;;5425849;26;19999;-70
2024/04/10 10:59:49;;;;;;;1999.90;999.90;;;17.90;46.00;;;;;;5414970;26;20092;-70
2024/04/10 11:02:15;;;;;;;1999.90;999.90;;;18.30;48.90;;;;;;5417945;26;20006;-70
2024/04/10 11:04:41;;;;;;;1999.90;999.90;;;18.30;43.60;;;;;;5415998;26;19995;-70
2024/04/10 11:07:07;;;;;;;1999.90;999.90;;;18.50;42.60;;;;;;5413265;26;20014;-70
2024/04/10 11:09:33;;;;;;;1999.90;999.90;;;17.50;46.60;;;;;;5410129;26;20014;-70
2024/04/10 11:12:01;;;;;;;1999.90;999.90;;;17.60;45.90;;;;;;5406750;26;19999;-70
2024/04/10 11:14:27;;;;;;;1999.90;999.90;;;17.60;45.90;;;;;;5421307;26;19994;-70
2024/04/10 11:17:00;;;;;;;1999.90;999.90;;;17.50;45.20;;;;;;5413821;26;20002;-70
2024/04/10 11:19:25;;;;;;;1999.90;999.90;;;18.00;44.70;;;;;;5422317;26;20007;-70
2024/04/10 11:21:51;;;;;;;1999.90;999.90;;;18.00;45.50;;;;;;5423387;26;20003;-70
2024/04/10 11:24:17;;;;;;;1999.90;999.90;;;18.20;47.30;;;;;;5426387;26;19995;-70
2024/04/10 11:26:43;;;;;;;1999.90;999.90;;;18.30;44.90;;;;;;5418126;26;20547;-70
2024/04/10 11:29:08;;;;;;;1999.90;999.90;;;18.20;46.90;;;;;;5423503;26;20453;-70
2024/04/10 11:31:34;;;;;;;1999.90;999.90;;;17.70;44.70;;;;;;5416868;26;20010;-70
2024/04/10 11:33:59;;;;;;;1999.90;999.90;;;18.20;44.20;;;;;;5413313;26;20010;-70
2024/04/10 11:36:25;;;;;;;1999.90;999.90;;;17.50;42.80;;;;;;5413363;26;20002;-70
2024/04/10 11:38:51;;;;;;;1999.90;999.90;;;17.60;46.40;;;;;;5421134;26;19995;-70
2024/04/10 11:41:17;;;;;;;1999.90;999.90;;;17.40;44.90;;;;;;5429269;26;20034;-70
2024/04/10 11:43:44;;;;;;;1999.90;999.90;;;17.30;46.30;;;;;;5423097;26;20906;-70
2024/04/10 11:46:10;;;;;;;1999.90;999.90;;;17.50;48.80;;;;;;5432859;26;20001;-70
2024/04/10 11:48:38;;;;;;;1999.90;999.90;;;17.30;44.20;;;;;;5431664;26;20059;-70
2024/04/10 11:51:04;;;;;;;1999.90;999.90;;;17.30;46.40;;;;;;5430554;26;20019;-70
2024/04/10 11:53:32;;;;;;;1999.90;999.90;;;17.40;47.60;;;;;;5424306;26;20051;-70
2024/04/10 11:55:58;;;;;;;1999.90;999.90;;;17.00;49.60;;;;;;5412552;26;20034;-70
2024/04/10 11:58:23;;;;;;;1999.90;999.90;;;17.60;49.20;;;;;;5411327;26;20167;-70
2024/04/10 12:00:50;;;;;;;1999.90;999.90;;;17.10;48.90;;;;;;5402798;26;20449;-70
2024/04/10 12:03:15;;;;;;;;;;;16.60;48.40;;;;;;5425177;26;20084;-70
2024/04/10 12:05:41;;;;;;;1999.90;999.90;;;16.70;50.70;;;;;;5420257;26;19929;-70
2024/04/10 12:08:07;;;;;;;1999.90;999.90;;;16.60;49.50;;;;;;5411960;26;20003;-70
2024/04/10 12:10:33;;;;;;;1999.90;999.90;;;16.70;45.70;;;;;;5406596;26;19996;-70
2024/04/10 12:12:59;;;;;;;1999.90;999.90;;;16.70;45.00;;;;;;5407274;26;20020;-70